Time;durP1;ratioP1;P1;durP2;ratioP2;P2;SDS_P1;SDS_P2;PMS_P1;PMS_P2;Temp;Humidity;BMP_temperature;BMP_pressure;BME280_temperature;BME280_humidity;BME280_pressure;Samples;Min_cycle;Max_cycle;Signal;HPM_P1;HPM_P2
2022/08/27 00:02:30;;;;;;;10.20;8.70;;;;;;;;;;110443;1248;34440;-32
2022/08/27 00:05:00;;;;;;;9.40;8.40;;;;;;;;;;110408;1256;35057;-33
2022/08/27 00:07:31;;;;;;;10.10;8.40;;;;;;;;;;110455;1256;33675;-32
2022/08/27 00:10:06;;;;;;;8.90;8.00;;;;;;;;;;110464;1257;35092;-32
2022/08/27 00:12:37;;;;;;;9.10;8.20;;;;;;;;;;110468;1256;35186;-32
2022/08/27 00:15:11;;;;;;;9.10;8.10;;;;;;;;;;110456;1257;35372;-32
2022/08/27 00:17:44;;;;;;;9.80;8.50;;;;;;;;;;110448;1257;33332;-32
2022/08/27 00:20:18;;;;;;;10.10;8.10;;;;;;;;;;110464;1251;35187;-30
2022/08/27 00:22:49;;;;;;;9.10;7.90;;;;;;;;;;110462;1257;35022;-32
2022/08/27 00:25:20;;;;;;;9.00;8.10;;;;;;;;;;110438;1256;35310;-32
2022/08/27 00:27:52;;;;;;;9.80;8.10;;;;;;;;;;110454;1256;35016;-32
2022/08/27 00:30:24;;;;;;;11.30;8.40;;;;;;;;;;110436;1248;35228;-32
2022/08/27 00:32:55;;;;;;;9.70;8.30;;;;;;;;;;110451;1256;34911;-32
2022/08/27 00:35:27;;;;;;;9.50;8.40;;;;;;;;;;110435;1257;33312;-32
2022/08/27 00:37:58;;;;;;;10.10;9.00;;;;;;;;;;110444;1256;35199;-33
2022/08/27 00:40:29;;;;;;;9.60;8.40;;;;;;;;;;110449;1256;35507;-33
2022/08/27 00:43:03;;;;;;;9.20;8.30;;;;;;;;;;110450;1250;33721;-33
2022/08/27 00:45:40;;;;;;;9.40;8.50;;;;;;;;;;110463;1257;35026;-32
2022/08/27 00:48:15;;;;;;;9.90;8.90;;;;;;;;;;110454;1257;33271;-32
2022/08/27 00:50:48;;;;;;;8.90;8.00;;;;;;;;;;110470;1257;35048;-32
2022/08/27 00:53:23;;;;;;;10.60;9.20;;;;;;;;;;110449;1256;34985;-32
2022/08/27 00:55:57;;;;;;;9.60;8.60;;;;;;;;;;110440;1256;34795;-32
2022/08/27 00:58:31;;;;;;;9.90;9.00;;;;;;;;;;110462;1256;33272;-32
2022/08/27 01:01:03;;;;;;;10.80;8.70;;;;;;;;;;110448;1256;33794;-32
2022/08/27 01:03:34;;;;;;;9.30;8.20;;;;;;;;;;110437;1255;34934;-32
2022/08/27 01:06:10;;;;;;;9.90;8.70;;;;;;;;;;110451;1257;34921;-32
2022/08/27 01:08:44;;;;;;;10.20;8.70;;;;;;;;;;110430;1256;35001;-32
2022/08/27 01:11:14;;;;;;;10.10;9.10;;;;;;;;;;110472;1257;33472;-32
2022/08/27 01:13:46;;;;;;;11.00;9.10;;;;;;;;;;110464;1256;34946;-33
2022/08/27 01:16:22;;;;;;;9.60;8.60;;;;;;;;;;110439;1256;35388;-32
2022/08/27 01:18:54;;;;;;;10.00;9.00;;;;;;;;;;110442;1256;33260;-33
2022/08/27 01:21:30;;;;;;;11.30;9.70;;;;;;;;;;110429;1256;35109;-32
2022/08/27 01:24:06;;;;;;;11.10;9.30;;;;;;;;;;110480;1256;35029;-32
2022/08/27 01:26:37;;;;;;;10.30;9.30;;;;;;;;;;110449;1256;34998;-32
2022/08/27 01:29:07;;;;;;;10.50;8.60;;;;;;;;;;110467;1256;35533;-33
2022/08/27 01:31:38;;;;;;;10.60;9.50;;;;;;;;;;110436;1257;35023;-33
2022/08/27 01:34:09;;;;;;;11.00;9.90;;;;;;;;;;110434;1256;35258;-33
2022/08/27 01:36:40;;;;;;;10.30;9.20;;;;;;;;;;110452;1256;35208;-33
2022/08/27 01:39:11;;;;;;;10.70;9.60;;;;;;;;;;110459;1257;34380;-33
2022/08/27 01:41:42;;;;;;;11.10;10.10;;;;;;;;;;110458;1256;35007;-33
2022/08/27 01:44:13;;;;;;;11.20;10.00;;;;;;;;;;110466;1256;35590;-33
2022/08/27 01:46:46;;;;;;;12.30;9.70;;;;;;;;;;110435;1249;33378;-32
2022/08/27 01:49:17;;;;;;;11.40;9.80;;;;;;;;;;110471;1257;33429;-32
2022/08/27 01:51:51;;;;;;;11.80;10.30;;;;;;;;;;110427;1256;34297;-32
2022/08/27 01:54:21;;;;;;;12.00;10.80;;;;;;;;;;110467;1256;35392;-32
2022/08/27 01:56:54;;;;;;;11.50;10.10;;;;;;;;;;110457;1256;35121;-32
2022/08/27 01:59:26;;;;;;;12.20;10.00;;;;;;;;;;110450;1248;35497;-32
2022/08/27 02:01:57;;;;;;;11.10;9.90;;;;;;;;;;110439;1256;34296;-33
2022/08/27 02:04:28;;;;;;;12.00;10.80;;;;;;;;;;110448;1256;35102;-32
2022/08/27 02:06:59;;;;;;;13.50;10.40;;;;;;;;;;110463;1256;35512;-33
2022/08/27 02:09:32;;;;;;;12.10;10.50;;;;;;;;;;110445;1255;35446;-32
2022/08/27 02:12:03;;;;;;;11.70;10.00;;;;;;;;;;110459;1256;35808;-32
2022/08/27 02:14:35;;;;;;;12.60;10.70;;;;;;;;;;110461;1256;34108;-32
2022/08/27 02:17:06;;;;;;;12.30;11.00;;;;;;;;;;110463;1256;35269;-32
2022/08/27 02:19:37;;;;;;;12.50;11.10;;;;;;;;;;110460;1255;35168;-32
2022/08/27 02:22:10;;;;;;;12.10;10.50;;;;;;;;;;110453;1256;34397;-32
2022/08/27 02:24:42;;;;;;;13.10;10.90;;;;;;;;;;110437;1257;33381;-33
2022/08/27 02:27:13;;;;;;;13.10;10.90;;;;;;;;;;110471;1254;34197;-32
2022/08/27 02:29:46;;;;;;;13.40;11.90;;;;;;;;;;110453;1256;35054;-33
2022/08/27 02:32:19;;;;;;;12.30;11.00;;;;;;;;;;110462;1251;35291;-32
2022/08/27 02:34:50;;;;;;;12.20;11.00;;;;;;;;;;110467;1256;33375;-33
2022/08/27 02:37:21;;;;;;;13.50;11.70;;;;;;;;;;110458;1256;35464;-33
2022/08/27 02:39:52;;;;;;;12.80;11.50;;;;;;;;;;110432;1248;35336;-33
2022/08/27 02:42:23;;;;;;;12.30;11.10;;;;;;;;;;110463;1248;33992;-32
2022/08/27 02:44:54;;;;;;;12.30;11.00;;;;;;;;;;110452;1255;35286;-33
2022/08/27 02:47:25;;;;;;;13.00;11.50;;;;;;;;;;110473;1256;35997;-33
2022/08/27 02:49:56;;;;;;;14.40;11.50;;;;;;;;;;110399;1256;35551;-32
2022/08/27 02:52:28;;;;;;;12.10;10.80;;;;;;;;;;110459;1256;34966;-32
2022/08/27 02:54:59;;;;;;;12.60;11.00;;;;;;;;;;110454;1253;34973;-32
2022/08/27 02:57:30;;;;;;;13.80;11.60;;;;;;;;;;110440;1256;35859;-33
2022/08/27 03:00:06;;;;;;;13.90;11.40;;;;;;;;;;110468;1256;35677;-33
2022/08/27 03:02:37;;;;;;;13.70;11.50;;;;;;;;;;110460;1256;33750;-33
2022/08/27 03:05:11;;;;;;;12.90;11.30;;;;;;;;;;110460;1256;35266;-32
2022/08/27 03:07:43;;;;;;;12.90;11.50;;;;;;;;;;110489;1248;34031;-32
2022/08/27 03:10:15;;;;;;;13.00;11.10;;;;;;;;;;110313;1256;35269;-32
2022/08/27 03:12:46;;;;;;;15.20;11.40;;;;;;;;;;110438;1256;34331;-33
2022/08/27 03:15:19;;;;;;;14.20;11.90;;;;;;;;;;110406;1256;35498;-32
2022/08/27 03:20:41;;;;;;;14.60;11.30;;;;;;;;;;110425;1256;35097;-32
2022/08/27 03:23:14;;;;;;;13.60;11.50;;;;;;;;;;110436;1248;35397;-32
2022/08/27 03:25:50;;;;;;;12.30;10.20;;;;;;;;;;110460;1256;35206;-32
2022/08/27 03:28:24;;;;;;;14.60;11.70;;;;;;;;;;110441;1256;35511;-32
2022/08/27 03:30:59;;;;;;;13.50;10.80;;;;;;;;;;110450;1256;35373;-32
2022/08/27 03:33:32;;;;;;;14.00;11.70;;;;;;;;;;110482;1257;35624;-33
2022/08/27 03:36:05;;;;;;;11.90;10.60;;;;;;;;;;110481;1255;35017;-33
2022/08/27 03:38:36;;;;;;;12.30;11.00;;;;;;;;;;110406;1256;35244;-33
2022/08/27 03:41:08;;;;;;;13.70;11.20;;;;;;;;;;110475;1257;35186;-33
2022/08/27 03:43:42;;;;;;;12.90;11.50;;;;;;;;;;110461;1248;33333;-33
2022/08/27 03:46:13;;;;;;;13.80;10.90;;;;;;;;;;110476;1248;33868;-33
2022/08/27 03:48:43;;;;;;;12.80;10.70;;;;;;;;;;110425;1256;35766;-33
2022/08/27 03:51:15;;;;;;;11.50;10.40;;;;;;;;;;110460;1256;35661;-31
2022/08/27 03:53:46;;;;;;;12.40;10.80;;;;;;;;;;110433;1255;35404;-32
2022/08/27 03:56:17;;;;;;;11.50;10.30;;;;;;;;;;110427;1250;35046;-33
2022/08/27 03:58:48;;;;;;;15.60;11.10;;;;;;;;;;110402;1247;34284;-33
2022/08/27 04:01:18;;;;;;;12.30;10.70;;;;;;;;;;110419;1256;35504;-33
2022/08/27 04:03:51;;;;;;;12.10;10.90;;;;;;;;;;110408;1256;35097;-33
2022/08/27 04:06:22;;;;;;;12.40;11.10;;;;;;;;;;110457;1256;35239;-33
2022/08/27 04:08:53;;;;;;;12.40;10.60;;;;;;;;;;110435;1256;35391;-32
2022/08/27 04:11:23;;;;;;;14.00;11.50;;;;;;;;;;110410;1256;34243;-32
2022/08/27 04:13:54;;;;;;;12.20;10.60;;;;;;;;;;110420;1256;35353;-32
2022/08/27 04:16:26;;;;;;;12.00;10.40;;;;;;;;;;110408;1253;33313;-32
2022/08/27 04:18:57;;;;;;;11.70;10.50;;;;;;;;;;110375;1256;35381;-33
2022/08/27 04:21:28;;;;;;;12.80;11.00;;;;;;;;;;110432;1256;35247;-33
2022/08/27 04:23:59;;;;;;;12.20;10.90;;;;;;;;;;110433;1248;34270;-32
2022/08/27 04:26:31;;;;;;;12.40;11.00;;;;;;;;;;110467;1256;34002;-32
2022/08/27 04:29:01;;;;;;;12.30;10.40;;;;;;;;;;110446;1256;33379;-32
2022/08/27 04:31:34;;;;;;;13.00;10.90;;;;;;;;;;110443;1256;34301;-32
2022/08/27 04:34:06;;;;;;;12.60;10.80;;;;;;;;;;110477;1247;34131;-32
2022/08/27 04:36:37;;;;;;;11.50;10.30;;;;;;;;;;110475;1256;33477;-33
2022/08/27 04:39:08;;;;;;;12.70;11.20;;;;;;;;;;110447;1248;35014;-33
2022/08/27 04:41:39;;;;;;;11.70;10.40;;;;;;;;;;110451;1256;35442;-33
2022/08/27 04:44:11;;;;;;;12.80;11.40;;;;;;;;;;110441;1248;35339;-33
2022/08/27 04:46:42;;;;;;;11.50;10.40;;;;;;;;;;110480;1247;33993;-33
2022/08/27 04:49:15;;;;;;;11.20;10.00;;;;;;;;;;110474;1256;35298;-33
2022/08/27 04:51:45;;;;;;;11.30;9.80;;;;;;;;;;110473;1248;35170;-33
2022/08/27 04:54:16;;;;;;;13.60;10.50;;;;;;;;;;110437;1256;35333;-32
2022/08/27 04:56:50;;;;;;;11.90;10.70;;;;;;;;;;110445;1256;33498;-32
2022/08/27 04:59:21;;;;;;;11.70;10.50;;;;;;;;;;110464;1248;34995;-32
2022/08/27 05:01:52;;;;;;;11.60;10.40;;;;;;;;;;110463;1247;35302;-33
2022/08/27 05:04:23;;;;;;;11.90;10.40;;;;;;;;;;110464;1255;35477;-33
2022/08/27 05:06:54;;;;;;;11.50;10.40;;;;;;;;;;110422;1255;35121;-33
2022/08/27 05:09:27;;;;;;;12.50;10.80;;;;;;;;;;110435;1255;35187;-33
2022/08/27 05:11:58;;;;;;;12.10;10.90;;;;;;;;;;110473;1256;35735;-33
2022/08/27 05:14:31;;;;;;;12.40;10.90;;;;;;;;;;110441;1247;35238;-33
2022/08/27 05:17:02;;;;;;;11.20;10.00;;;;;;;;;;110454;1256;34252;-33
2022/08/27 05:19:32;;;;;;;11.60;10.50;;;;;;;;;;110469;1255;34380;-33
2022/08/27 05:22:03;;;;;;;11.40;10.20;;;;;;;;;;110429;1256;35734;-33
2022/08/27 05:24:34;;;;;;;11.80;10.30;;;;;;;;;;110432;1256;35127;-33
2022/08/27 05:27:06;;;;;;;11.60;10.40;;;;;;;;;;110461;1256;34337;-33
2022/08/27 05:29:36;;;;;;;11.70;10.50;;;;;;;;;;110471;1256;34712;-33
2022/08/27 05:32:10;;;;;;;13.40;10.00;;;;;;;;;;110448;1256;35592;-33
2022/08/27 05:34:41;;;;;;;11.30;10.10;;;;;;;;;;110455;1256;33740;-33
2022/08/27 05:37:12;;;;;;;11.90;10.70;;;;;;;;;;110477;1255;34955;-33
2022/08/27 05:39:43;;;;;;;11.30;10.10;;;;;;;;;;110454;1247;35372;-33
2022/08/27 05:42:14;;;;;;;11.90;10.20;;;;;;;;;;110458;1256;36105;-33
2022/08/27 05:44:45;;;;;;;13.60;10.70;;;;;;;;;;110457;1255;35027;-33
2022/08/27 05:47:16;;;;;;;12.00;10.30;;;;;;;;;;110455;1255;35158;-33
2022/08/27 05:49:47;;;;;;;12.20;11.00;;;;;;;;;;110320;1251;33972;-33
2022/08/27 05:52:18;;;;;;;11.10;9.90;;;;;;;;;;110436;1255;33393;-33
2022/08/27 05:54:52;;;;;;;12.00;10.70;;;;;;;;;;110441;1255;35208;-33
2022/08/27 05:57:22;;;;;;;12.60;11.30;;;;;;;;;;110445;1256;33294;-32
2022/08/27 06:02:45;;;;;;;12.30;10.40;;;;;;;;;;110455;1256;34063;-32
2022/08/27 06:05:16;;;;;;;11.90;10.60;;;;;;;;;;110443;1255;35488;-33
2022/08/27 06:07:48;;;;;;;11.70;10.50;;;;;;;;;;110435;1256;34290;-32
2022/08/27 06:10:19;;;;;;;11.30;10.20;;;;;;;;;;110463;1256;33782;-33
2022/08/27 06:12:50;;;;;;;11.70;10.60;;;;;;;;;;110447;1256;34979;-33
2022/08/27 06:15:21;;;;;;;12.10;10.90;;;;;;;;;;110432;1255;35491;-32
2022/08/27 06:17:53;;;;;;;12.30;11.10;;;;;;;;;;110424;1247;35582;-33
2022/08/27 06:20:23;;;;;;;12.80;10.80;;;;;;;;;;110479;1247;35504;-33
2022/08/27 06:22:54;;;;;;;12.60;10.70;;;;;;;;;;110436;1253;35151;-32
2022/08/27 06:25:25;;;;;;;12.70;11.10;;;;;;;;;;110473;1256;34936;-33
2022/08/27 06:27:57;;;;;;;14.80;11.30;;;;;;;;;;110468;1256;35366;-33
2022/08/27 06:30:28;;;;;;;13.70;11.90;;;;;;;;;;110461;1247;35720;-32
2022/08/27 06:32:58;;;;;;;16.80;11.50;;;;;;;;;;110447;1255;33916;-33
2022/08/27 06:35:29;;;;;;;15.10;12.10;;;;;;;;;;110412;1255;35536;-32
2022/08/27 06:38:00;;;;;;;13.50;12.00;;;;;;;;;;110433;1256;35478;-33
2022/08/27 06:40:31;;;;;;;14.70;12.30;;;;;;;;;;110434;1255;34263;-33
2022/08/27 06:43:02;;;;;;;14.50;11.90;;;;;;;;;;110454;1247;35591;-32
2022/08/27 06:45:39;;;;;;;14.90;12.40;;;;;;;;;;110416;1256;35357;-32
2022/08/27 06:48:12;;;;;;;16.10;12.10;;;;;;;;;;110436;1254;35359;-32
2022/08/27 06:50:42;;;;;;;;;;;;;;;;;;110425;1255;34925;-32
2022/08/27 06:53:13;;;;;;;15.90;12.30;;;;;;;;;;110436;1247;34564;-32
2022/08/27 06:55:46;;;;;;;15.30;12.70;;;;;;;;;;110427;1256;35763;-32
2022/08/27 06:58:18;;;;;;;16.00;13.30;;;;;;;;;;110451;1247;35003;-32
2022/08/27 07:00:50;;;;;;;17.00;13.20;;;;;;;;;;110421;1255;35375;-32
2022/08/27 07:03:21;;;;;;;16.80;13.90;;;;;;;;;;110433;1255;34234;-32
2022/08/27 07:05:54;;;;;;;15.30;12.60;;;;;;;;;;110457;1256;35375;-33
2022/08/27 07:08:25;;;;;;;16.70;13.50;;;;;;;;;;110449;1247;35664;-33
2022/08/27 07:10:58;;;;;;;18.60;13.40;;;;;;;;;;110425;1247;34827;-33
2022/08/27 07:13:29;;;;;;;19.20;13.30;;;;;;;;;;110417;1253;35213;-33
2022/08/27 07:16:04;;;;;;;18.60;13.90;;;;;;;;;;110449;1248;35376;-33
2022/08/27 07:18:35;;;;;;;18.70;13.80;;;;;;;;;;110440;1256;35523;-33
2022/08/27 07:21:07;;;;;;;21.20;14.40;;;;;;;;;;110444;1256;33752;-33
2022/08/27 07:23:39;;;;;;;20.40;14.00;;;;;;;;;;110421;1247;34722;-33
2022/08/27 07:26:12;;;;;;;21.00;14.40;;;;;;;;;;110432;1255;35137;-33
2022/08/27 07:28:45;;;;;;;19.90;14.00;;;;;;;;;;110448;1255;34989;-33
2022/08/27 07:31:18;;;;;;;22.90;15.00;;;;;;;;;;110454;1247;35618;-33
2022/08/27 07:33:49;;;;;;;19.30;13.40;;;;;;;;;;110431;1256;35118;-33
2022/08/27 07:36:20;;;;;;;20.00;13.70;;;;;;;;;;110423;1247;33328;-33
2022/08/27 07:38:52;;;;;;;19.00;13.50;;;;;;;;;;110108;1255;419096;-33
2022/08/27 07:41:22;;;;;;;18.70;13.40;;;;;;;;;;110434;1256;34320;-33
2022/08/27 07:46:44;;;;;;;21.70;13.70;;;;;;;;;;110433;1255;35269;-33
2022/08/27 07:49:14;;;;;;;17.50;13.50;;;;;;;;;;110426;1256;34954;-33
2022/08/27 07:51:45;;;;;;;19.20;13.70;;;;;;;;;;110399;1256;34607;-33
2022/08/27 07:54:16;;;;;;;18.00;13.90;;;;;;;;;;110419;1255;35716;-33
2022/08/27 07:56:46;;;;;;;17.10;13.50;;;;;;;;;;110431;1247;35672;-32
2022/08/27 07:59:18;;;;;;;15.50;13.10;;;;;;;;;;110444;1248;35132;-32
2022/08/27 08:01:48;;;;;;;15.90;12.80;;;;;;;;;;110449;1247;34461;-32
2022/08/27 08:04:21;;;;;;;17.10;13.40;;;;;;;;;;110444;1255;35670;-32
2022/08/27 08:06:52;;;;;;;18.10;12.90;;;;;;;;;;110439;1255;35630;-33
2022/08/27 08:09:24;;;;;;;18.50;12.80;;;;;;;;;;110440;1247;35134;-33
2022/08/27 08:11:55;;;;;;;20.40;13.90;;;;;;;;;;110432;1247;35253;-32
2022/08/27 08:14:26;;;;;;;16.20;12.90;;;;;;;;;;110465;1247;33439;-32
2022/08/27 08:17:02;;;;;;;18.50;12.90;;;;;;;;;;110463;1255;33871;-32
2022/08/27 08:19:33;;;;;;;21.50;13.90;;;;;;;;;;110456;1255;34370;-32
2022/08/27 08:22:03;;;;;;;18.40;12.70;;;;;;;;;;110480;1247;35248;-32
2022/08/27 08:24:35;;;;;;;16.60;13.40;;;;;;;;;;110446;1250;35109;-32
2022/08/27 08:27:07;;;;;;;15.10;12.90;;;;;;;;;;110473;1255;35350;-32
2022/08/27 08:29:39;;;;;;;16.50;12.20;;;;;;;;;;110455;1255;35251;-31
2022/08/27 08:32:10;;;;;;;17.10;11.30;;;;;;;;;;110468;1255;36007;-33
2022/08/27 08:34:42;;;;;;;17.00;13.00;;;;;;;;;;110448;1247;34281;-33
2022/08/27 08:37:13;;;;;;;15.90;12.00;;;;;;;;;;110464;1247;35609;-33
2022/08/27 08:39:47;;;;;;;14.70;12.00;;;;;;;;;;110454;1247;35606;-33
2022/08/27 08:42:29;;;;;;;15.50;12.20;;;;;;;;;;110448;1255;34204;-33
2022/08/27 08:45:02;;;;;;;17.20;12.00;;;;;;;;;;110455;1255;35455;-32
2022/08/27 08:47:38;;;;;;;15.10;11.40;;;;;;;;;;110467;1247;35320;-32
2022/08/27 08:50:17;;;;;;;15.00;11.70;;;;;;;;;;110493;1247;35026;-32
2022/08/27 08:52:52;;;;;;;14.50;11.90;;;;;;;;;;110455;1255;34418;-32
2022/08/27 08:55:33;;;;;;;16.10;11.70;;;;;;;;;;110427;1250;33800;-32
2022/08/27 08:58:15;;;;;;;14.30;11.80;;;;;;;;;;110416;1255;35499;-33
2022/08/27 09:00:52;;;;;;;15.50;12.60;;;;;;;;;;110434;1247;35629;-33
2022/08/27 09:03:23;;;;;;;15.50;11.70;;;;;;;;;;110455;1247;35115;-33
2022/08/27 09:06:02;;;;;;;14.90;11.70;;;;;;;;;;110466;1247;35719;-33
2022/08/27 09:08:36;;;;;;;14.10;11.30;;;;;;;;;;110451;1255;34998;-33
2022/08/27 09:11:14;;;;;;;14.30;11.00;;;;;;;;;;110450;1255;34700;-33
2022/08/27 09:13:47;;;;;;;14.00;11.40;;;;;;;;;;110472;1255;35259;-33
2022/08/27 09:16:18;;;;;;;18.00;12.00;;;;;;;;;;110466;1255;35103;-33
2022/08/27 09:18:50;;;;;;;14.70;11.70;;;;;;;;;;110440;1247;35557;-33
2022/08/27 09:21:29;;;;;;;13.30;11.80;;;;;;;;;;110456;1255;35469;-33
2022/08/27 09:24:06;;;;;;;12.90;11.30;;;;;;;;;;110437;1255;35993;-33
2022/08/27 09:26:39;;;;;;;13.40;11.30;;;;;;;;;;110431;1247;33797;-33
2022/08/27 09:29:15;;;;;;;12.70;11.10;;;;;;;;;;110404;1247;35013;-33
2022/08/27 09:31:52;;;;;;;13.20;11.60;;;;;;;;;;110474;1247;35721;-33
2022/08/27 09:34:24;;;;;;;12.30;10.80;;;;;;;;;;110419;1255;33543;-33
2022/08/27 09:37:04;;;;;;;14.80;11.50;;;;;;;;;;110435;1255;34861;-33
2022/08/27 09:39:43;;;;;;;13.40;11.10;;;;;;;;;;110461;1247;35658;-33
2022/08/27 09:42:30;;;;;;;13.00;11.10;;;;;;;;;;110445;1247;35375;-33
2022/08/27 09:45:02;;;;;;;11.90;10.60;;;;;;;;;;110448;1247;34539;-35
2022/08/27 09:47:40;;;;;;;13.60;11.30;;;;;;;;;;110461;1255;33646;-36
2022/08/27 09:50:13;;;;;;;11.90;10.70;;;;;;;;;;110473;1250;34858;-36
2022/08/27 09:52:54;;;;;;;13.40;10.70;;;;;;;;;;110453;1255;34466;-36
2022/08/27 09:55:39;;;;;;;11.90;10.40;;;;;;;;;;110459;1255;35339;-35
2022/08/27 09:58:19;;;;;;;13.00;10.60;;;;;;;;;;110458;1247;35556;-36
2022/08/27 10:00:58;;;;;;;11.00;9.70;;;;;;;;;;110418;1255;35022;-35
2022/08/27 10:03:30;;;;;;;15.30;10.60;;;;;;;;;;110446;1256;34973;-35
2022/08/27 10:06:00;;;;;;;12.50;11.00;;;;;;;;;;110454;1247;35210;-36
2022/08/27 10:08:43;;;;;;;13.80;10.80;;;;;;;;;;110457;1255;35150;-36
2022/08/27 10:11:18;;;;;;;13.00;11.10;;;;;;;;;;110445;1255;35111;-36
2022/08/27 10:13:57;;;;;;;12.20;11.00;;;;;;;;;;110465;1255;35510;-36
2022/08/27 10:16:41;;;;;;;13.30;11.10;;;;;;;;;;110417;1255;34386;-36
2022/08/27 10:19:21;;;;;;;11.40;10.10;;;;;;;;;;110462;1247;35008;-35
2022/08/27 10:21:57;;;;;;;12.10;10.30;;;;;;;;;;110468;1256;35536;-35
2022/08/27 10:24:38;;;;;;;12.00;10.70;;;;;;;;;;110458;1247;35254;-35
2022/08/27 10:27:16;;;;;;;12.20;11.00;;;;;;;;;;110489;1248;33954;-36
2022/08/27 10:29:52;;;;;;;11.80;10.40;;;;;;;;;;110461;1255;35166;-36
2022/08/27 10:32:34;;;;;;;11.80;10.60;;;;;;;;;;110444;1247;35123;-36
2022/08/27 10:35:12;;;;;;;11.70;10.60;;;;;;;;;;110432;1247;34525;-36
2022/08/27 10:37:50;;;;;;;12.90;11.60;;;;;;;;;;110458;1256;34064;-34
2022/08/27 10:40:26;;;;;;;12.40;11.10;;;;;;;;;;110421;1248;33846;-33
2022/08/27 10:43:05;;;;;;;12.00;10.80;;;;;;;;;;110425;1255;35075;-33
2022/08/27 10:45:44;;;;;;;12.50;10.80;;;;;;;;;;110395;1248;34343;-32
2022/08/27 10:48:27;;;;;;;12.30;11.00;;;;;;;;;;110405;1256;33813;-30
2022/08/27 10:51:07;;;;;;;12.10;10.90;;;;;;;;;;110397;1247;35512;-30
2022/08/27 10:53:42;;;;;;;12.90;11.60;;;;;;;;;;110395;1255;35380;-30
2022/08/27 10:56:18;;;;;;;12.20;10.80;;;;;;;;;;110418;1255;35129;-31
2022/08/27 10:59:01;;;;;;;12.30;11.00;;;;;;;;;;110407;1248;35148;-31
2022/08/27 11:01:43;;;;;;;12.40;11.10;;;;;;;;;;110440;1255;35167;-31
2022/08/27 11:04:20;;;;;;;12.20;10.90;;;;;;;;;;110455;1247;35480;-31
2022/08/27 11:06:56;;;;;;;11.90;10.80;;;;;;;;;;110434;1255;34134;-31
2022/08/27 11:09:34;;;;;;;11.90;10.70;;;;;;;;;;110434;1255;35515;-31
2022/08/27 11:12:13;;;;;;;12.50;11.20;;;;;;;;;;110411;1247;35135;-31
2022/08/27 11:14:47;;;;;;;11.50;10.40;;;;;;;;;;110435;1255;35181;-31
2022/08/27 11:17:21;;;;;;;13.30;11.30;;;;;;;;;;110433;1247;35719;-30
2022/08/27 11:19:57;;;;;;;12.20;10.80;;;;;;;;;;110441;1256;36154;-31
2022/08/27 11:22:33;;;;;;;12.80;11.40;;;;;;;;;;110462;1251;33854;-32
2022/08/27 11:25:15;;;;;;;13.20;10.60;;;;;;;;;;110437;1247;35133;-33
2022/08/27 11:27:47;;;;;;;12.10;10.80;;;;;;;;;;110462;1255;35539;-34
2022/08/27 11:30:21;;;;;;;11.70;10.20;;;;;;;;;;110431;1255;35643;-35
2022/08/27 11:33:07;;;;;;;12.40;11.10;;;;;;;;;;110467;1255;36477;-31
2022/08/27 11:35:44;;;;;;;12.20;10.80;;;;;;;;;;110436;1255;33518;-31
2022/08/27 11:38:33;;;;;;;12.00;10.80;;;;;;;;;;110471;1247;33527;-31
2022/08/27 11:41:16;;;;;;;11.70;10.50;;;;;;;;;;110414;1247;35023;-31
2022/08/27 11:43:47;;;;;;;11.50;10.40;;;;;;;;;;110428;1247;35580;-31
2022/08/27 11:46:26;;;;;;;12.00;10.30;;;;;;;;;;110394;1255;35237;-30
2022/08/27 11:49:00;;;;;;;11.40;10.20;;;;;;;;;;110325;1255;35958;-32
2022/08/27 11:51:33;;;;;;;;;;;;;;;;;;110383;1250;34972;-32
2022/08/27 11:54:06;;;;;;;11.80;10.60;;;;;;;;;;110490;1247;34705;-34
2022/08/27 11:56:40;;;;;;;;;;;;;;;;;;110428;1255;35394;-34
2022/08/27 11:59:20;;;;;;;13.30;9.90;;;;;;;;;;110455;1255;35757;-34
2022/08/27 12:01:52;;;;;;;11.70;10.40;;;;;;;;;;110487;1255;35178;-34
2022/08/27 12:04:35;;;;;;;12.30;10.00;;;;;;;;;;110481;1247;35109;-36
2022/08/27 12:07:09;;;;;;;10.70;9.60;;;;;;;;;;110586;1255;33507;-35
2022/08/27 12:09:54;;;;;;;10.80;9.50;;;;;;;;;;110486;1248;35170;-34
2022/08/27 12:12:33;;;;;;;10.70;9.60;;;;;;;;;;110457;1248;35690;-33
2022/08/27 12:15:09;;;;;;;10.80;9.60;;;;;;;;;;110419;1255;35413;-32
2022/08/27 12:17:45;;;;;;;11.60;9.50;;;;;;;;;;110471;1256;35131;-32
2022/08/27 12:20:23;;;;;;;11.50;9.60;;;;;;;;;;110463;1250;35042;-32
2022/08/27 12:26:00;;;;;;;10.10;9.00;;;;;;;;;;110454;1255;34984;-33
2022/08/27 12:28:31;;;;;;;10.30;9.20;;;;;;;;;;110439;1255;33329;-33
2022/08/27 12:31:05;;;;;;;10.40;9.30;;;;;;;;;;110465;1250;35204;-32
2022/08/27 12:33:40;;;;;;;12.10;9.70;;;;;;;;;;110469;1247;35122;-33
2022/08/27 12:36:18;;;;;;;10.50;9.10;;;;;;;;;;110442;1255;34379;-33
2022/08/27 12:38:52;;;;;;;9.60;8.60;;;;;;;;;;110435;1248;35814;-33
2022/08/27 12:41:30;;;;;;;9.10;8.20;;;;;;;;;;110437;1255;33358;-33
2022/08/27 12:44:09;;;;;;;10.40;8.90;;;;;;;;;;110460;1255;35242;-33
2022/08/27 12:46:48;;;;;;;10.60;8.70;;;;;;;;;;110489;1255;35317;-33
2022/08/27 12:49:21;;;;;;;10.20;9.10;;;;;;;;;;110505;1247;35445;-33
2022/08/27 12:51:53;;;;;;;11.30;9.40;;;;;;;;;;110453;1255;35381;-33
2022/08/27 12:57:26;;;;;;;10.10;9.10;;;;;;;;;;106921;1286;569861;-31
2022/08/27 13:00:08;;;;;;;10.20;9.20;;;;;;;;;;110439;1256;34473;-31
2022/08/27 13:02:59;;;;;;;10.30;9.30;;;;;;;;;;110464;1253;33334;-31
2022/08/27 13:05:42;;;;;;;9.70;8.70;;;;;;;;;;110454;1251;35206;-30
2022/08/27 13:08:19;;;;;;;;;;;;;;;;;;110459;1256;33390;-30
2022/08/27 13:10:52;;;;;;;10.40;8.30;;;;;;;;;;110068;1254;520455;-29
2022/08/27 13:13:24;;;;;;;10.00;9.00;;;;;;;;;;110650;1253;34578;-29
2022/08/27 13:15:57;;;;;;;10.30;8.70;;;;;;;;;;110621;1248;35517;-29
2022/08/27 13:18:28;;;;;;;11.20;9.70;;;;;;;;;;110655;1248;34622;-30
2022/08/27 13:21:07;;;;;;;9.20;8.20;;;;;;;;;;110684;1253;34386;-28
2022/08/27 13:23:43;;;;;;;10.00;8.80;;;;;;;;;;110702;1254;34464;-28
2022/08/27 13:26:14;;;;;;;10.00;9.00;;;;;;;;;;110678;1253;35105;-28
2022/08/27 13:28:44;;;;;;;9.80;8.80;;;;;;;;;;110688;1248;35079;-29
2022/08/27 13:31:19;;;;;;;9.90;8.90;;;;;;;;;;110638;1248;34638;-30
2022/08/27 13:33:52;;;;;;;9.80;8.80;;;;;;;;;;110661;1253;35177;-29
2022/08/27 13:36:31;;;;;;;9.70;8.70;;;;;;;;;;110692;1253;34882;-31
2022/08/27 13:39:03;;;;;;;10.30;9.30;;;;;;;;;;110679;1244;34922;-32
2022/08/27 13:41:36;;;;;;;11.40;9.40;;;;;;;;;;110689;1245;34697;-31
2022/08/27 13:44:09;;;;;;;;;;;;;;;;;;110678;1253;35120;-30
2022/08/27 13:46:46;;;;;;;;;;;;;;;;;;110701;1253;33703;-30
2022/08/27 13:49:21;;;;;;;10.10;9.10;;;;;;;;;;110654;1252;34547;-29
2022/08/27 13:52:01;;;;;;;9.70;8.60;;;;;;;;;;110697;1244;34709;-29
2022/08/27 13:54:33;;;;;;;10.60;9.50;;;;;;;;;;110676;1244;34640;-30
2022/08/27 13:57:08;;;;;;;11.20;9.30;;;;;;;;;;110627;1252;35096;-30
2022/08/27 13:59:44;;;;;;;10.70;9.60;;;;;;;;;;110683;1253;34901;-28
2022/08/27 14:02:20;;;;;;;;;;;;;;;;;;110684;1253;34414;-29
2022/08/27 14:05:06;;;;;;;9.90;8.60;;;;;;;;;;110650;1244;34718;-30
2022/08/27 14:07:40;;;;;;;11.00;9.90;;;;;;;;;;110700;1253;35454;-30
2022/08/27 14:10:30;;;;;;;10.80;9.70;;;;;;;;;;110665;1244;35048;-30
2022/08/27 14:13:03;;;;;;;10.60;9.50;;;;;;;;;;110643;1252;34999;-28
2022/08/27 14:15:37;;;;;;;10.90;9.80;;;;;;;;;;110696;1252;34817;-30
2022/08/27 14:18:24;;;;;;;11.10;10.00;;;;;;;;;;110688;1253;34826;-30
2022/08/27 14:20:56;;;;;;;10.70;9.70;;;;;;;;;;110681;1253;34621;-30
2022/08/27 14:23:29;;;;;;;10.20;9.10;;;;;;;;;;110675;1247;34901;-30
2022/08/27 14:26:01;;;;;;;11.00;9.90;;;;;;;;;;110628;1253;35230;-30
2022/08/27 14:28:32;;;;;;;10.20;9.20;;;;;;;;;;110591;1253;34890;-28
2022/08/27 14:31:03;;;;;;;10.50;9.50;;;;;;;;;;110646;1254;35984;-30
2022/08/27 14:33:34;;;;;;;11.20;10.00;;;;;;;;;;110619;1247;34831;-30
2022/08/27 14:36:07;;;;;;;11.20;10.10;;;;;;;;;;110653;1248;35347;-30
2022/08/27 14:38:44;;;;;;;11.20;10.10;;;;;;;;;;110660;1253;35086;-30
2022/08/27 14:41:15;;;;;;;11.40;10.30;;;;;;;;;;110622;1253;34918;-29
2022/08/27 14:43:47;;;;;;;11.50;10.30;;;;;;;;;;110649;1253;33776;-32
2022/08/27 14:46:23;;;;;;;11.60;10.40;;;;;;;;;;110648;1245;34226;-32
2022/08/27 14:48:58;;;;;;;12.00;10.20;;;;;;;;;;110630;1246;34835;-33
2022/08/27 14:51:33;;;;;;;11.80;10.00;;;;;;;;;;110683;1252;34848;-33
2022/08/27 14:54:04;;;;;;;12.30;10.50;;;;;;;;;;110700;1253;35001;-33
2022/08/27 14:56:35;;;;;;;11.60;10.50;;;;;;;;;;110637;1245;34986;-33
2022/08/27 14:59:05;;;;;;;11.60;10.50;;;;;;;;;;110641;1247;34814;-33
2022/08/27 15:01:37;;;;;;;11.20;10.10;;;;;;;;;;110690;1252;33319;-33
2022/08/27 15:04:08;;;;;;;11.90;10.80;;;;;;;;;;110685;1253;35073;-33